Time;durP1;ratioP1;P1;durP2;ratioP2;P2;SDS_P1;SDS_P2;PMS_P1;PMS_P2;Temp;Humidity;BMP_temperature;BMP_pressure;BME280_temperature;BME280_humidity;BME280_pressure;Samples;Min_cycle;Max_cycle;Signal;HPM_P1;HPM_P2
2023/07/29 00:03:42;;;;;;;2.87;2.30;;;17.70;99.90;;;;;;7282327;32;20176;-57
2023/07/29 00:07:43;;;;;;;8.18;2.40;;;17.70;99.90;;;;;;7282233;32;20175;-57
2023/07/29 00:11:45;;;;;;;3.15;2.47;;;17.80;99.90;;;;;;7289988;32;20183;-57
2023/07/29 00:15:47;;;;;;;5.05;2.80;;;17.90;99.90;;;;;;7281358;32;20108;-56
2023/07/29 00:19:49;;;;;;;4.03;2.70;;;17.90;99.90;;;;;;7286805;32;20762;-57
2023/07/29 00:23:50;;;;;;;3.67;2.70;;;18.00;99.90;;;;;;7283053;32;20584;-57
2023/07/29 00:27:54;;;;;;;3.70;2.60;;;18.00;99.90;;;;;;7290370;32;20122;-56
2023/07/29 00:31:56;;;;;;;4.57;2.53;;;18.10;99.90;;;;;;7280690;32;20180;-56
2023/07/29 00:36:01;;;;;;;5.12;2.53;;;18.20;99.90;;;;;;7279935;32;20504;-56
2023/07/29 00:40:08;;;;;;;2.75;2.45;;;18.10;99.90;;;;;;7281925;32;20416;-56
2023/07/29 00:44:10;;;;;;;3.83;2.60;;;18.10;99.90;;;;;;7289427;32;20099;-56
2023/07/29 00:48:12;;;;;;;6.12;2.22;;;18.20;99.90;;;;;;7288392;32;20171;-56
2023/07/29 00:52:14;;;;;;;6.50;2.50;;;18.10;99.90;;;;;;7289583;32;20234;-57
2023/07/29 00:56:16;;;;;;;3.25;2.50;;;18.00;99.90;;;;;;7281882;32;20196;-57
2023/07/29 01:00:17;;;;;;;6.65;3.40;;;18.00;99.90;;;;;;7279793;32;20241;-57
2023/07/29 01:04:19;;;;;;;3.28;2.65;;;17.90;99.90;;;;;;7285600;32;20511;-57
2023/07/29 01:08:36;;;;;;;3.72;2.85;;;17.90;99.90;;;;;;7278292;32;20154;-57
2023/07/29 01:12:59;;;;;;;4.93;2.83;;;17.80;99.90;;;;;;7289066;32;20181;-56
2023/07/29 01:17:04;;;;;;;4.03;2.65;;;17.90;99.90;;;;;;7279780;32;20107;-57
2023/07/29 01:21:08;;;;;;;3.47;2.75;;;17.90;99.90;;;;;;7281710;32;20128;-56
2023/07/29 01:25:10;;;;;;;4.62;3.08;;;17.90;99.90;;;;;;7284842;32;20116;-57
2023/07/29 01:29:12;;;;;;;4.37;2.33;;;17.90;99.90;;;;;;7296981;32;20178;-57
2023/07/29 01:33:40;;;;;;;10.00;3.70;;;17.90;99.90;;;;;;7283755;32;20314;-57
2023/07/29 01:37:47;;;;;;;7.28;3.05;;;17.90;99.90;;;;;;7279715;32;20605;-56
2023/07/29 01:41:50;;;;;;;3.50;3.20;;;17.90;99.90;;;;;;7285917;32;20127;-57
2023/07/29 01:45:52;;;;;;;4.07;2.85;;;18.00;99.90;;;;;;7284799;32;20273;-56
2023/07/29 01:49:54;;;;;;;5.85;3.47;;;18.00;99.90;;;;;;7283624;32;20465;-57
2023/07/29 01:53:56;;;;;;;4.15;2.75;;;18.00;99.90;;;;;;7284900;32;20202;-56
2023/07/29 01:57:58;;;;;;;6.55;3.30;;;18.00;99.90;;;;;;7296114;32;20112;-56
2023/07/29 02:02:00;;;;;;;7.85;3.20;;;18.00;99.90;;;;;;7295237;32;20103;-57
2023/07/29 02:06:01;;;;;;;6.28;3.20;;;18.10;99.90;;;;;;7284827;32;20128;-57
2023/07/29 02:10:03;;;;;;;7.85;3.62;;;18.00;99.90;;;;;;7296796;32;20184;-57
2023/07/29 02:14:05;;;;;;;6.93;3.00;;;18.10;99.90;;;;;;7287862;32;20289;-57
2023/07/29 02:18:07;;;;;;;8.13;3.20;;;18.10;99.90;;;;;;7288234;32;20157;-56
2023/07/29 02:22:10;;;;;;;6.78;3.50;;;18.00;99.90;;;;;;7287733;32;20770;-57
2023/07/29 02:26:12;;;;;;;7.50;3.30;;;18.00;99.90;;;;;;7289100;32;20109;-56
2023/07/29 02:30:21;;;;;;;4.65;3.05;;;18.10;99.90;;;;;;7289008;32;20089;-56
2023/07/29 02:34:22;;;;;;;4.95;3.28;;;18.20;99.90;;;;;;7293967;32;20174;-56
2023/07/29 02:38:24;;;;;;;5.50;2.92;;;18.10;99.90;;;;;;7285858;32;20153;-56
2023/07/29 02:42:26;;;;;;;5.75;3.03;;;18.10;99.90;;;;;;7289501;32;20598;-56
2023/07/29 02:46:27;;;;;;;7.25;3.58;;;18.10;99.90;;;;;;7295074;32;20132;-56
2023/07/29 02:50:29;;;;;;;6.80;3.90;;;18.20;99.90;;;;;;7315551;32;20103;-56
2023/07/29 02:54:31;;;;;;;4.05;3.50;;;18.20;99.90;;;;;;7299783;32;20165;-56
2023/07/29 02:58:33;;;;;;;4.15;3.40;;;18.10;99.90;;;;;;7285818;32;20414;-56
2023/07/29 03:02:34;;;;;;;6.12;3.50;;;18.20;99.90;;;;;;7281099;32;20505;-56
2023/07/29 03:06:36;;;;;;;3.20;2.90;;;18.30;99.90;;;;;;7292762;32;20194;-57
2023/07/29 03:10:38;;;;;;;3.83;3.37;;;18.20;99.90;;;;;;7292934;32;20103;-57
2023/07/29 03:14:41;;;;;;;11.55;3.70;;;18.20;99.90;;;;;;7309056;32;20112;-57
2023/07/29 03:18:44;;;;;;;6.53;3.72;;;18.20;99.90;;;;;;7314886;32;20108;-57
2023/07/29 03:22:46;;;;;;;4.60;3.33;;;18.30;99.90;;;;;;7295600;32;20107;-57
2023/07/29 03:26:48;;;;;;;4.95;3.65;;;18.20;99.90;;;;;;7295507;32;20154;-56
2023/07/29 03:30:50;;;;;;;5.78;3.42;;;18.20;99.90;;;;;;7275574;32;20198;-57
2023/07/29 03:34:51;;;;;;;6.05;3.45;;;18.30;99.90;;;;;;7286903;32;20127;-56
2023/07/29 03:38:53;;;;;;;9.73;3.60;;;18.20;99.90;;;;;;7282035;32;20131;-56
2023/07/29 03:42:55;;;;;;;3.42;2.72;;;18.20;99.90;;;;;;7312843;32;20134;-56
2023/07/29 03:46:57;;;;;;;3.17;2.75;;;18.20;99.90;;;;;;7281841;32;20737;-57
2023/07/29 03:50:58;;;;;;;5.25;3.35;;;18.10;99.90;;;;;;7293710;32;20730;-56
2023/07/29 03:55:00;;;;;;;11.27;3.62;;;18.20;99.90;;;;;;7322846;32;20104;-56
2023/07/29 03:59:04;;;;;;;6.05;3.90;;;18.00;99.90;;;;;;7299997;32;20157;-56
2023/07/29 04:03:05;;;;;;;9.05;4.22;;;18.00;99.90;;;;;;7300484;32;20104;-56
2023/07/29 04:07:07;;;;;;;5.07;3.78;;;18.20;99.90;;;;;;7306154;32;20161;-56
2023/07/29 04:11:09;;;;;;;4.45;3.83;;;18.20;99.90;;;;;;7300822;32;20796;-56
2023/07/29 04:15:11;;;;;;;9.10;4.18;;;18.30;99.90;;;;;;7309203;32;20116;-57
2023/07/29 04:19:12;;;;;;;7.30;3.78;;;18.30;99.90;;;;;;7313352;32;20103;-56
2023/07/29 04:23:14;;;;;;;6.93;4.18;;;18.20;99.90;;;;;;7297131;32;20111;-56
2023/07/29 04:27:16;;;;;;;4.12;3.83;;;18.20;99.90;;;;;;7302399;32;20572;-57
2023/07/29 04:31:18;;;;;;;7.95;4.12;;;18.20;99.90;;;;;;7315669;32;20191;-57
2023/07/29 04:35:19;;;;;;;4.65;3.70;;;18.10;99.90;;;;;;7302243;32;20187;-57
2023/07/29 04:39:21;;;;;;;5.30;3.70;;;18.20;99.90;;;;;;7310759;32;20128;-56
2023/07/29 04:43:27;;;;;;;5.15;3.75;;;18.10;99.90;;;;;;7299492;32;21419;-57
2023/07/29 04:47:29;;;;;;;4.40;3.58;;;18.10;99.90;;;;;;7310183;32;20129;-57
2023/07/29 04:51:33;;;;;;;7.30;3.72;;;18.10;99.90;;;;;;7317188;32;20108;-57
2023/07/29 04:55:35;;;;;;;4.80;3.53;;;18.00;99.90;;;;;;7300595;32;20103;-57
2023/07/29 04:59:37;;;;;;;4.80;3.85;;;17.90;99.90;;;;;;7318060;32;20108;-57
2023/07/29 05:03:39;;;;;;;4.25;3.85;;;17.90;99.90;;;;;;7306742;32;20133;-56
2023/07/29 05:07:41;;;;;;;5.90;4.15;;;17.90;99.90;;;;;;7280990;32;20100;-57
2023/07/29 05:11:45;;;;;;;5.07;4.57;;;17.90;99.90;;;;;;7299451;32;20484;-56
2023/07/29 05:15:48;;;;;;;5.53;4.25;;;17.90;99.90;;;;;;7291594;32;20526;-56
2023/07/29 05:19:50;;;;;;;5.72;4.65;;;17.90;99.90;;;;;;7285382;32;20121;-57
2023/07/29 05:23:51;;;;;;;5.95;3.78;;;17.90;99.90;;;;;;7301706;32;20150;-56
2023/07/29 05:27:53;;;;;;;6.35;4.37;;;18.00;99.90;;;;;;7292114;32;20105;-56
2023/07/29 05:31:56;;;;;;;7.03;5.12;;;18.00;99.90;;;;;;7289423;32;20166;-56
2023/07/29 05:35:58;;;;;;;5.05;4.55;;;18.00;99.90;;;;;;7292084;32;20099;-56
2023/07/29 05:40:00;;;;;;;6.37;4.28;;;18.00;99.90;;;;;;7281184;32;20108;-57
2023/07/29 05:44:01;;;;;;;4.95;3.95;;;18.00;99.90;;;;;;7280624;32;20132;-57
2023/07/29 05:48:03;;;;;;;7.35;4.15;;;18.00;99.90;;;;;;7280941;32;20104;-57
2023/07/29 05:52:06;;;;;;;6.60;4.57;;;17.90;99.90;;;;;;7280607;32;20100;-57
2023/07/29 05:56:07;;;;;;;6.68;4.85;;;17.90;99.90;;;;;;7288799;32;20174;-56
2023/07/29 06:00:10;;;;;;;5.18;4.10;;;17.90;99.90;;;;;;7285733;32;20126;-57
2023/07/29 06:04:11;;;;;;;8.65;4.78;;;17.90;99.90;;;;;;7288979;32;20131;-56
2023/07/29 06:08:13;;;;;;;8.32;5.40;;;17.90;99.90;;;;;;7288623;32;20108;-56
2023/07/29 06:12:15;;;;;;;5.68;5.03;;;17.90;99.90;;;;;;7280278;32;20119;-56
2023/07/29 06:16:16;;;;;;;8.45;4.60;;;17.90;99.90;;;;;;7288385;32;20202;-56
2023/07/29 06:20:18;;;;;;;9.40;4.90;;;18.00;99.90;;;;;;7280649;32;20660;-56
2023/07/29 06:24:20;;;;;;;5.07;3.85;;;18.00;99.90;;;;;;7281117;32;20088;-56
2023/07/29 06:28:21;;;;;;;5.80;3.22;;;17.90;99.90;;;;;;7283865;32;20215;-57
2023/07/29 06:32:23;;;;;;;3.95;3.00;;;17.80;99.90;;;;;;7282911;32;20116;-57
2023/07/29 06:36:25;;;;;;;3.42;3.00;;;17.80;99.90;;;;;;7283557;32;20595;-57
2023/07/29 06:40:27;;;;;;;6.40;2.70;;;18.00;99.90;;;;;;7285747;32;20247;-57
2023/07/29 06:44:29;;;;;;;6.10;2.85;;;18.00;99.90;;;;;;7283002;32;20147;-57
2023/07/29 06:48:30;;;;;;;4.55;2.53;;;18.00;99.90;;;;;;7285342;32;20104;-57
2023/07/29 06:52:32;;;;;;;4.65;2.78;;;18.00;99.90;;;;;;7287042;32;20794;-58
2023/07/29 06:56:34;;;;;;;2.65;2.25;;;18.00;99.90;;;;;;7286801;32;20189;-57
2023/07/29 07:00:36;;;;;;;2.67;1.83;;;18.20;99.90;;;;;;7289316;32;20889;-57
2023/07/29 07:04:38;;;;;;;2.50;1.65;;;18.30;99.90;;;;;;7290818;32;20123;-57
2023/07/29 07:08:40;;;;;;;2.87;1.62;;;18.60;99.90;;;;;;7285295;32;20100;-58
2023/07/29 07:12:42;;;;;;;1.58;1.10;;;18.70;99.90;;;;;;7293167;32;20280;-58
2023/07/29 07:16:44;;;;;;;3.87;1.55;;;19.10;99.90;;;;;;7294352;32;20271;-57
2023/07/29 07:20:49;;;;;;;2.80;1.05;;;19.60;99.90;;;;;;7284418;32;20176;-57
2023/07/29 07:24:51;;;;;;;2.28;1.25;;;19.50;99.90;;;;;;7283404;32;20124;-57
2023/07/29 07:28:52;;;;;;;2.65;1.15;;;19.30;99.90;;;;;;7269416;32;20729;-57
2023/07/29 07:32:54;;;;;;;4.47;1.30;;;19.50;99.90;;;;;;7292106;32;20108;-57
2023/07/29 07:36:56;;;;;;;2.72;1.17;;;19.50;99.90;;;;;;7283491;32;20135;-57
2023/07/29 07:40:58;;;;;;;2.28;1.05;;;19.40;99.90;;;;;;7281724;32;20122;-57
2023/07/29 07:44:59;;;;;;;2.47;1.20;;;19.50;99.90;;;;;;7279749;32;20139;-58
2023/07/29 07:49:01;;;;;;;2.67;1.17;;;19.40;99.90;;;;;;7284745;32;20424;-58
2023/07/29 07:53:03;;;;;;;3.62;1.45;;;19.40;99.90;;;;;;7288707;32;20230;-57
2023/07/29 07:57:05;;;;;;;2.70;1.50;;;19.40;99.90;;;;;;7283175;32;20126;-58
2023/07/29 08:01:08;;;;;;;2.87;1.02;;;19.40;99.90;;;;;;7286253;32;20644;-57
2023/07/29 08:05:10;;;;;;;4.10;1.10;;;19.40;99.90;;;;;;7284470;32;20127;-56
2023/07/29 08:09:11;;;;;;;2.42;1.30;;;19.50;99.90;;;;;;7280488;32;20171;-57
2023/07/29 08:13:13;;;;;;;3.62;0.90;;;19.50;99.90;;;;;;7293057;32;20096;-56
2023/07/29 08:17:15;;;;;;;1.92;1.10;;;19.40;99.90;;;;;;7288512;32;20122;-56
2023/07/29 08:21:17;;;;;;;1.67;0.95;;;19.50;99.90;;;;;;7282148;32;20203;-56
2023/07/29 08:25:19;;;;;;;1.98;0.98;;;19.70;99.90;;;;;;7288108;32;20100;-56
2023/07/29 08:29:20;;;;;;;1.35;0.85;;;19.60;99.90;;;;;;7294523;32;20214;-57
2023/07/29 08:33:22;;;;;;;1.55;0.82;;;19.60;99.90;;;;;;7285111;32;20108;-56
2023/07/29 08:37:24;;;;;;;1.62;0.85;;;19.90;99.90;;;;;;7282485;32;20171;-57
2023/07/29 08:41:35;;;;;;;2.25;0.70;;;20.60;99.90;;;;;;7283824;32;20101;-56
2023/07/29 08:45:39;;;;;;;2.08;0.70;;;21.40;99.90;;;;;;7278528;32;20233;-57
2023/07/29 08:49:42;;;;;;;0.85;0.52;;;22.20;99.90;;;;;;7268860;32;20127;-56
2023/07/29 08:53:44;;;;;;;2.17;0.80;;;23.10;99.90;;;;;;7284113;32;20096;-57
2023/07/29 08:57:46;;;;;;;1.20;0.60;;;23.80;99.90;;;;;;7283039;32;20100;-57
2023/07/29 09:01:48;;;;;;;2.45;0.50;;;24.50;99.90;;;;;;7276633;32;20377;-57
2023/07/29 09:05:51;;;;;;;2.85;0.85;;;24.80;99.90;;;;;;7280434;32;20128;-58
2023/07/29 09:09:53;;;;;;;1.30;0.60;;;25.40;99.90;;;;;;7278543;32;20101;-57
2023/07/29 09:13:55;;;;;;;1.12;0.68;;;25.40;99.90;;;;;;7285123;32;20182;-57
2023/07/29 09:17:58;;;;;;;0.98;0.60;;;24.40;99.90;;;;;;7285962;32;20145;-57
2023/07/29 09:22:03;;;;;;;1.48;0.68;;;23.60;99.90;;;;;;7283035;32;20092;-57
2023/07/29 09:26:05;;;;;;;3.25;0.70;;;22.50;99.90;;;;;;7279155;32;20096;-57
2023/07/29 09:30:16;;;;;;;2.87;0.80;;;21.90;99.90;;;;;;7267686;32;20204;-56
2023/07/29 09:34:18;;;;;;;2.37;0.82;;;21.20;99.90;;;;;;7278101;32;20179;-57
2023/07/29 09:38:29;;;;;;;2.65;0.70;;;20.90;99.90;;;;;;7277839;32;20247;-57
2023/07/29 09:42:31;;;;;;;1.40;0.82;;;20.50;99.90;;;;;;7279269;32;20434;-57
2023/07/29 09:46:34;;;;;;;2.60;0.88;;;20.30;99.90;;;;;;7277628;32;20116;-56
2023/07/29 09:50:37;;;;;;;1.17;0.75;;;20.10;99.90;;;;;;7285430;32;20423;-57
2023/07/29 09:54:38;;;;;;;1.12;0.80;;;19.80;99.90;;;;;;7292114;32;20122;-57
2023/07/29 09:58:43;;;;;;;2.00;1.00;;;19.90;99.90;;;;;;7279286;32;20119;-56
2023/07/29 10:02:46;;;;;;;1.00;0.70;;;19.90;99.90;;;;;;7278033;32;20101;-57
2023/07/29 10:06:48;;;;;;;2.05;1.25;;;20.50;99.90;;;;;;7284736;32;20663;-56
2023/07/29 10:10:50;;;;;;;2.50;0.80;;;21.90;99.90;;;;;;7285651;32;20108;-57
2023/07/29 10:14:52;;;;;;;2.35;1.27;;;23.00;99.90;;;;;;7289955;32;20112;-57
2023/07/29 10:18:56;;;;;;;4.47;0.70;;;23.40;99.90;;;;;;7284517;32;20281;-57
2023/07/29 10:23:00;;;;;;;1.00;0.90;;;24.00;99.90;;;;;;7290338;32;20862;-56
2023/07/29 10:27:02;;;;;;;3.03;0.80;;;23.70;99.90;;;;;;7292521;32;20264;-57
2023/07/29 10:31:05;;;;;;;1.05;0.90;;;23.40;99.90;;;;;;7280729;32;20114;-57
2023/07/29 10:35:07;;;;;;;1.15;0.90;;;23.10;99.90;;;;;;7284013;32;20674;-57
2023/07/29 10:39:10;;;;;;;1.55;0.60;;;22.60;99.90;;;;;;7292488;32;20168;-57
2023/07/29 10:43:18;;;;;;;0.98;0.80;;;22.20;99.90;;;;;;7292546;32;20112;-57
2023/07/29 10:47:23;;;;;;;1.23;0.80;;;21.70;99.90;;;;;;7284503;32;20270;-57
2023/07/29 10:51:29;;;;;;;2.70;1.10;;;21.30;99.90;;;;;;7282474;32;20144;-56
2023/07/29 10:55:38;;;;;;;2.72;0.95;;;21.30;99.90;;;;;;7287305;32;20107;-57
2023/07/29 10:59:41;;;;;;;1.87;0.90;;;21.40;99.90;;;;;;7281737;32;20392;-57
2023/07/29 11:04:01;;;;;;;1.25;0.88;;;21.80;99.90;;;;;;7282716;32;20164;-57
2023/07/29 11:08:36;;;;;;;2.65;0.80;;;22.10;99.90;;;;;;7270476;32;20175;-57
2023/07/29 11:12:51;;;;;;;1.25;0.80;;;22.00;99.90;;;;;;7284790;32;20193;-57
2023/07/29 11:16:54;;;;;;;2.37;0.93;;;21.70;99.90;;;;;;7291832;32;20502;-57
2023/07/29 11:20:57;;;;;;;2.08;1.00;;;21.80;99.90;;;;;;7292747;32;20161;-57
2023/07/29 11:24:59;;;;;;;2.00;0.80;;;21.70;99.90;;;;;;7287708;32;20195;-57
2023/07/29 11:29:00;;;;;;;1.70;1.00;;;21.60;99.90;;;;;;7279635;32;20278;-57
2023/07/29 11:33:03;;;;;;;2.90;1.10;;;21.60;99.90;;;;;;7284812;32;20096;-56
2023/07/29 11:37:06;;;;;;;2.05;1.10;;;21.40;99.90;;;;;;7285998;32;20532;-56
2023/07/29 11:41:08;;;;;;;3.47;1.00;;;21.20;99.90;;;;;;7278247;32;20118;-57
2023/07/29 11:45:10;;;;;;;5.35;0.93;;;21.50;99.90;;;;;;7282330;32;20171;-57
2023/07/29 11:49:13;;;;;;;2.22;1.02;;;22.50;99.90;;;;;;7291269;32;20801;-57
2023/07/29 11:53:15;;;;;;;2.40;0.75;;;22.80;99.90;;;;;;7288060;32;20119;-56
2023/07/29 11:57:18;;;;;;;3.70;0.90;;;22.70;99.90;;;;;;7285618;32;20189;-56
2023/07/29 12:01:22;;;;;;;2.15;1.00;;;22.40;99.90;;;;;;7283233;32;20199;-57
2023/07/29 12:05:24;;;;;;;2.33;1.02;;;22.70;99.90;;;;;;7284875;32;20135;-57
2023/07/29 12:09:27;;;;;;;1.30;0.90;;;22.80;99.90;;;;;;7282171;32;20120;-57
2023/07/29 12:13:29;;;;;;;6.72;1.12;;;22.70;99.90;;;;;;7294681;32;20111;-57
2023/07/29 12:17:31;;;;;;;1.30;1.00;;;23.20;99.90;;;;;;7287679;32;20215;-57
2023/07/29 12:21:33;;;;;;;2.92;1.05;;;23.70;99.90;;;;;;7288051;32;20180;-57
2023/07/29 12:25:35;;;;;;;2.53;1.10;;;23.60;99.90;;;;;;7280397;32;20192;-56
2023/07/29 12:29:41;;;;;;;1.02;0.95;;;23.70;99.90;;;;;;7278535;32;20175;-57
2023/07/29 12:33:43;;;;;;;1.40;1.02;;;23.80;99.90;;;;;;7283232;32;20149;-57
2023/07/29 12:37:45;;;;;;;1.58;0.90;;;24.10;99.90;;;;;;7286877;32;20123;-57
2023/07/29 12:41:51;;;;;;;3.80;1.12;;;24.10;99.90;;;;;;7284595;32;20104;-56
2023/07/29 12:45:53;;;;;;;3.85;1.17;;;24.10;99.90;;;;;;7266668;32;20128;-57
2023/07/29 12:49:55;;;;;;;3.92;1.15;;;23.90;99.90;;;;;;7282728;32;20115;-57
2023/07/29 12:53:56;;;;;;;2.87;1.00;;;24.40;99.90;;;;;;7283850;32;20139;-57
2023/07/29 12:57:59;;;;;;;2.58;1.10;;;24.80;99.90;;;;;;7278160;32;20506;-57
2023/07/29 13:02:00;;;;;;;2.00;1.10;;;25.30;99.90;;;;;;7285303;32;20130;-58
2023/07/29 13:06:02;;;;;;;1.80;1.02;;;24.90;99.90;;;;;;7290796;32;20104;-57
2023/07/29 13:10:05;;;;;;;1.75;1.10;;;24.60;99.90;;;;;;7287079;32;20781;-56
2023/07/29 13:14:06;;;;;;;1.30;1.00;;;24.40;99.90;;;;;;7283915;32;20808;-57
2023/07/29 13:18:08;;;;;;;1.73;1.10;;;24.30;99.90;;;;;;7278701;32;20158;-57
2023/07/29 13:22:10;;;;;;;1.37;1.08;;;24.10;99.90;;;;;;7278090;32;20523;-56
2023/07/29 13:26:11;;;;;;;2.97;1.12;;;23.60;99.90;;;;;;7280334;32;20392;-57
2023/07/29 13:30:13;;;;;;;1.37;1.08;;;23.30;99.90;;;;;;7281058;32;20100;-57
2023/07/29 13:34:15;;;;;;;1.30;1.00;;;23.00;99.90;;;;;;7289518;32;20122;-57
2023/07/29 13:38:17;;;;;;;2.12;1.00;;;22.90;99.90;;;;;;7282013;32;20158;-57
2023/07/29 13:42:18;;;;;;;2.53;1.17;;;22.60;99.90;;;;;;7279328;32;20131;-57
2023/07/29 13:46:21;;;;;;;1.98;0.98;;;22.30;99.90;;;;;;7284804;32;20569;-57
2023/07/29 13:50:22;;;;;;;3.25;1.17;;;22.20;99.90;;;;;;7285444;32;20561;-57
2023/07/29 13:54:24;;;;;;;2.03;1.27;;;22.10;99.90;;;;;;7286229;32;20122;-58
2023/07/29 13:58:26;;;;;;;1.65;1.30;;;21.90;99.90;;;;;;7291083;32;20514;-56
2023/07/29 14:02:28;;;;;;;2.20;1.45;;;21.80;99.90;;;;;;7288390;32;20558;-57
2023/07/29 14:06:30;;;;;;;2.67;1.35;;;21.60;99.90;;;;;;7288753;32;20648;-58
2023/07/29 14:10:46;;;;;;;4.47;1.50;;;21.50;99.90;;;;;;7298441;32;20092;-58
2023/07/29 14:14:48;;;;;;;3.22;1.37;;;21.40;99.90;;;;;;7288747;32;20570;-58
2023/07/29 14:18:50;;;;;;;2.58;1.20;;;21.60;99.90;;;;;;7274666;32;20109;-57
2023/07/29 14:22:51;;;;;;;2.53;1.30;;;21.90;99.90;;;;;;7293588;32;20582;-57
2023/07/29 14:26:53;;;;;;;3.40;1.30;;;22.20;99.90;;;;;;7283114;32;20548;-59
2023/07/29 14:30:55;;;;;;;1.75;1.25;;;22.20;99.90;;;;;;7286973;32;20149;-59
2023/07/29 14:34:57;;;;;;;1.65;1.20;;;22.10;99.90;;;;;;7281384;32;20571;-56
2023/07/29 14:38:58;;;;;;;3.58;1.30;;;22.20;99.90;;;;;;7283587;32;20191;-57
2023/07/29 14:43:03;;;;;;;1.85;1.05;;;22.10;99.90;;;;;;7283397;32;20655;-58
2023/07/29 14:47:05;;;;;;;2.53;1.37;;;21.90;99.90;;;;;;7284741;32;20112;-56
2023/07/29 14:51:07;;;;;;;2.20;1.40;;;21.80;99.90;;;;;;7290258;32;20127;-57
2023/07/29 14:55:09;;;;;;;2.78;1.20;;;21.50;99.90;;;;;;7289274;32;20096;-56
2023/07/29 14:59:10;;;;;;;1.50;1.20;;;21.30;99.90;;;;;;7291492;32;20111;-58
2023/07/29 15:03:12;;;;;;;1.40;0.93;;;21.10;99.90;;;;;;7290018;32;20220;-59
2023/07/29 15:07:14;;;;;;;2.17;1.10;;;21.00;99.90;;;;;;7285884;32;20116;-58
2023/07/29 15:11:16;;;;;;;3.95;1.42;;;20.90;99.90;;;;;;7282172;32;20096;-57
2023/07/29 15:15:18;;;;;;;2.08;1.50;;;21.00;99.90;;;;;;7283178;32;20477;-56
2023/07/29 15:19:20;;;;;;;4.70;1.23;;;21.10;99.90;;;;;;7280416;32;20126;-57
2023/07/29 15:23:22;;;;;;;1.20;0.90;;;21.60;99.90;;;;;;7288639;32;20140;-57
2023/07/29 15:27:23;;;;;;;2.30;1.17;;;22.10;99.90;;;;;;7285177;32;20321;-58
2023/07/29 15:31:25;;;;;;;2.03;0.90;;;22.20;99.90;;;;;;7279954;32;20154;-57
2023/07/29 15:35:27;;;;;;;1.62;1.00;;;22.30;99.90;;;;;;7285814;32;20154;-58
2023/07/29 15:39:29;;;;;;;1.40;0.95;;;22.30;99.90;;;;;;7281397;32;20157;-59
2023/07/29 15:43:31;;;;;;;1.10;0.80;;;22.30;99.90;;;;;;7290450;32;20186;-58
2023/07/29 15:47:33;;;;;;;1.10;0.90;;;22.30;99.90;;;;;;7289457;32;20096;-58
2023/07/29 15:51:35;;;;;;;2.15;1.00;;;22.40;99.90;;;;;;7277530;32;20636;-57
2023/07/29 15:55:37;;;;;;;1.37;0.90;;;22.40;99.90;;;;;;7282112;32;20554;-56
2023/07/29 15:59:39;;;;;;;1.40;1.10;;;22.50;99.90;;;;;;7287214;32;20247;-57
2023/07/29 16:03:40;;;;;;;1.15;1.00;;;22.60;99.90;;;;;;7282927;32;20770;-57
2023/07/29 16:07:43;;;;;;;1.15;0.90;;;22.70;99.90;;;;;;7285552;32;20097;-57
2023/07/29 16:11:44;;;;;;;3.45;1.00;;;22.50;99.90;;;;;;7292224;32;20162;-57
2023/07/29 16:15:46;;;;;;;3.90;1.20;;;22.50;99.90;;;;;;7288260;32;20104;-57
2023/07/29 16:19:54;;;;;;;1.92;1.00;;;22.50;99.90;;;;;;7281326;32;20479;-56
2023/07/29 16:23:55;;;;;;;1.25;0.95;;;22.60;99.90;;;;;;7270609;32;20124;-57
2023/07/29 16:27:57;;;;;;;4.40;1.10;;;22.70;99.90;;;;;;7280351;32;20187;-57
2023/07/29 16:31:59;;;;;;;2.42;1.02;;;22.80;99.90;;;;;;7290548;32;20571;-57
2023/07/29 16:36:01;;;;;;;1.23;1.00;;;22.80;99.90;;;;;;7284592;32;20104;-57
2023/07/29 16:40:04;;;;;;;1.62;1.02;;;22.70;99.90;;;;;;7291025;32;20196;-57
2023/07/29 16:44:06;;;;;;;8.20;6.78;;;22.60;99.90;;;;;;7288689;32;20167;-57
2023/07/29 16:48:07;;;;;;;14.52;13.13;;;22.50;99.90;;;;;;7292272;32;20123;-58
2023/07/29 16:52:09;;;;;;;6.80;4.65;;;22.30;99.90;;;;;;7285092;32;20206;-57
2023/07/29 16:56:11;;;;;;;3.58;1.85;;;22.20;99.90;;;;;;7286136;32;20747;-58
2023/07/29 17:00:13;;;;;;;2.17;1.40;;;22.10;99.90;;;;;;7280974;32;20109;-57
2023/07/29 17:04:14;;;;;;;3.22;1.17;;;22.10;99.90;;;;;;7278575;32;20112;-57
2023/07/29 17:08:16;;;;;;;2.95;1.27;;;22.00;99.90;;;;;;7293191;32;20176;-57
2023/07/29 17:12:18;;;;;;;1.85;1.17;;;21.90;99.90;;;;;;7280656;32;20189;-57
2023/07/29 17:16:20;;;;;;;1.52;1.30;;;21.90;99.90;;;;;;7291291;32;20278;-58
2023/07/29 17:20:21;;;;;;;1.27;1.17;;;21.80;99.90;;;;;;7291948;32;20443;-57
2023/07/29 17:24:23;;;;;;;3.45;1.20;;;21.80;99.90;;;;;;7285028;32;20100;-57
2023/07/29 17:28:25;;;;;;;2.05;1.00;;;21.80;99.90;;;;;;7281474;32;20202;-57
2023/07/29 17:32:27;;;;;;;2.20;1.10;;;21.80;99.90;;;;;;7285968;32;20122;-57
2023/07/29 17:36:29;;;;;;;2.12;1.08;;;21.80;99.90;;;;;;7284394;32;20118;-57
2023/07/29 17:40:30;;;;;;;2.33;1.08;;;21.70;99.90;;;;;;7283787;32;20116;-57
2023/07/29 17:44:32;;;;;;;1.40;1.00;;;21.70;99.90;;;;;;7291882;32;20160;-57
2023/07/29 17:48:34;;;;;;;1.25;0.90;;;21.80;99.90;;;;;;7287891;32;20113;-57
2023/07/29 17:52:36;;;;;;;2.53;1.12;;;21.80;99.90;;;;;;7295248;32;20099;-58
2023/07/29 17:56:37;;;;;;;1.75;1.20;;;21.80;99.90;;;;;;7280432;32;20674;-57
2023/07/29 18:00:40;;;;;;;3.85;1.70;;;21.90;99.90;;;;;;7291462;32;20122;-60
2023/07/29 18:04:43;;;;;;;1.48;1.20;;;21.90;99.90;;;;;;7282395;32;20462;-57
2023/07/29 18:08:45;;;;;;;3.00;1.65;;;21.90;99.90;;;;;;7292060;32;20149;-57
2023/07/29 18:12:46;;;;;;;2.80;1.70;;;21.80;99.90;;;;;;7287739;32;20104;-58
2023/07/29 18:16:48;;;;;;;1.87;1.27;;;21.70;99.90;;;;;;7292182;32;20096;-57
2023/07/29 18:20:50;;;;;;;1.40;1.10;;;21.80;99.90;;;;;;7281560;32;20096;-57
2023/07/29 18:24:52;;;;;;;2.92;1.40;;;21.70;99.90;;;;;;7287954;32;20202;-58
2023/07/29 18:28:54;;;;;;;3.08;1.20;;;21.50;99.90;;;;;;7297419;32;20734;-57
2023/07/29 18:32:58;;;;;;;2.47;1.20;;;21.40;99.90;;;;;;7285054;32;20435;-58
2023/07/29 18:37:00;;;;;;;3.15;1.60;;;21.30;99.90;;;;;;7299217;32;20214;-57
2023/07/29 18:41:01;;;;;;;4.80;1.87;;;21.10;99.90;;;;;;7276481;32;20349;-58
2023/07/29 18:45:04;;;;;;;11.40;3.28;;;20.90;99.90;;;;;;7268996;32;20236;-58
2023/07/29 18:49:08;;;;;;;10.73;3.00;;;20.70;99.90;;;;;;7303975;32;20112;-56
2023/07/29 18:53:09;;;;;;;8.65;3.45;;;20.10;99.90;;;;;;7278571;32;20187;-57
2023/07/29 18:57:12;;;;;;;7.50;3.08;;;19.70;99.90;;;;;;7286829;32;20109;-59
2023/07/29 19:01:15;;;;;;;5.40;2.47;;;19.20;99.90;;;;;;7281239;32;20153;-57
2023/07/29 19:05:17;;;;;;;5.03;2.20;;;19.10;99.90;;;;;;7282945;32;20096;-57
2023/07/29 19:09:18;;;;;;;3.62;2.70;;;18.90;99.90;;;;;;7296766;32;20676;-58
2023/07/29 19:13:20;;;;;;;3.55;2.20;;;18.80;99.90;;;;;;7297274;32;20393;-57
2023/07/29 19:17:22;;;;;;;4.28;2.08;;;18.60;99.90;;;;;;7283081;32;20151;-58
2023/07/29 19:21:24;;;;;;;3.40;2.10;;;18.60;99.90;;;;;;7283866;32;20116;-57
2023/07/29 19:25:26;;;;;;;5.07;2.22;;;18.50;99.90;;;;;;7285086;32;20902;-57
2023/07/29 19:29:27;;;;;;;3.58;2.28;;;18.40;99.90;;;;;;7283892;32;20550;-58
2023/07/29 19:33:29;;;;;;;4.12;2.08;;;18.30;99.90;;;;;;7286150;32;20264;-57
2023/07/29 19:37:31;;;;;;;3.35;2.10;;;18.10;99.90;;;;;;7282894;32;20112;-58
2023/07/29 19:41:33;;;;;;;3.85;1.65;;;18.10;99.90;;;;;;7285341;32;20221;-58
2023/07/29 19:45:34;;;;;;;4.40;2.10;;;18.00;99.90;;;;;;7282795;32;20549;-58
2023/07/29 19:49:36;;;;;;;3.20;2.40;;;17.90;99.90;;;;;;7285695;32;20125;-61
2023/07/29 19:53:38;;;;;;;6.50;2.37;;;17.90;99.90;;;;;;7288701;32;20169;-61
2023/07/29 19:57:40;;;;;;;4.00;2.35;;;17.80;99.90;;;;;;7294512;32;20856;-58
2023/07/29 20:01:41;;;;;;;4.93;2.58;;;17.80;99.90;;;;;;7281250;32;20151;-58
2023/07/29 20:05:44;;;;;;;7.22;2.40;;;17.80;99.90;;;;;;7285501;32;20291;-58
2023/07/29 20:09:46;;;;;;;5.47;2.00;;;17.60;99.90;;;;;;7267473;32;20096;-56
2023/07/29 20:13:47;;;;;;;3.75;2.40;;;17.60;99.90;;;;;;7288299;32;20196;-57
2023/07/29 20:17:49;;;;;;;3.83;2.37;;;17.50;99.90;;;;;;7281115;32;20144;-57
2023/07/29 20:21:51;;;;;;;3.40;2.47;;;17.50;99.90;;;;;;7286234;32;20851;-57
2023/07/29 20:25:53;;;;;;;3.83;2.70;;;17.50;99.90;;;;;;7288934;32;20104;-57
2023/07/29 20:29:54;;;;;;;4.28;2.55;;;17.40;99.90;;;;;;7289527;32;20569;-56
2023/07/29 20:33:56;;;;;;;5.22;2.58;;;17.40;99.90;;;;;;7290592;32;20578;-56
2023/07/29 20:37:58;;;;;;;4.97;2.90;;;17.40;99.90;;;;;;7292729;32;20466;-56
2023/07/29 20:42:00;;;;;;;3.83;2.80;;;17.40;99.90;;;;;;7283811;32;20154;-55
2023/07/29 20:46:01;;;;;;;3.05;2.65;;;17.40;99.90;;;;;;7279797;32;20334;-55
2023/07/29 20:50:03;;;;;;;5.80;3.22;;;17.40;99.90;;;;;;7284736;32;20104;-55
2023/07/29 20:54:05;;;;;;;4.05;2.87;;;17.40;99.90;;;;;;7282451;32;20114;-56
2023/07/29 20:58:07;;;;;;;8.30;3.10;;;17.40;99.90;;;;;;7285465;32;20127;-56
2023/07/29 21:02:09;;;;;;;5.30;3.05;;;17.40;99.90;;;;;;7286245;32;20153;-57